sensor_id;sensor_type;location;lat;lon;timestamp;P1;durP1;ratioP1;P2;durP2;ratioP2
7719;SDS011;3902;49.474;8.616;2023-04-16T00:00:46;4.30;;;3.90;;
7719;SDS011;3902;49.474;8.616;2023-04-16T00:03:12;4.00;;;3.70;;
7719;SDS011;3902;49.474;8.616;2023-04-16T00:05:38;4.13;;;3.83;;
7719;SDS011;3902;49.474;8.616;2023-04-16T00:08:04;5.03;;;4.43;;
7719;SDS011;3902;49.474;8.616;2023-04-16T00:10:29;4.50;;;3.90;;
7719;SDS011;3902;49.474;8.616;2023-04-16T00:12:55;3.87;;;3.57;;
7719;SDS011;3902;49.474;8.616;2023-04-16T00:15:20;4.33;;;3.93;;
7719;SDS011;3902;49.474;8.616;2023-04-16T00:17:46;4.70;;;4.30;;
7719;SDS011;3902;49.474;8.616;2023-04-16T00:20:12;4.73;;;4.33;;
7719;SDS011;3902;49.474;8.616;2023-04-16T00:22:37;5.17;;;4.43;;
7719;SDS011;3902;49.474;8.616;2023-04-16T00:25:03;4.00;;;3.60;;
7719;SDS011;3902;49.474;8.616;2023-04-16T00:27:29;4.40;;;4.00;;
7719;SDS011;3902;49.474;8.616;2023-04-16T00:29:54;4.60;;;4.10;;
7719;SDS011;3902;49.474;8.616;2023-04-16T00:32:20;4.67;;;4.27;;
7719;SDS011;3902;49.474;8.616;2023-04-16T00:34:45;4.40;;;4.00;;
7719;SDS011;3902;49.474;8.616;2023-04-16T00:37:11;4.83;;;4.43;;
7719;SDS011;3902;49.474;8.616;2023-04-16T00:39:36;4.87;;;4.47;;
7719;SDS011;3902;49.474;8.616;2023-04-16T00:42:02;5.10;;;4.70;;
7719;SDS011;3902;49.474;8.616;2023-04-16T00:44:27;5.17;;;4.77;;
7719;SDS011;3902;49.474;8.616;2023-04-16T00:46:54;5.00;;;4.53;;
7719;SDS011;3902;49.474;8.616;2023-04-16T00:49:21;4.80;;;4.43;;
7719;SDS011;3902;49.474;8.616;2023-04-16T00:51:48;4.20;;;3.80;;
7719;SDS011;3902;49.474;8.616;2023-04-16T00:54:14;5.30;;;4.80;;
7719;SDS011;3902;49.474;8.616;2023-04-16T00:56:40;4.70;;;4.30;;
7719;SDS011;3902;49.474;8.616;2023-04-16T00:59:06;5.37;;;4.87;;
7719;SDS011;3902;49.474;8.616;2023-04-16T01:01:32;4.47;;;4.07;;
7719;SDS011;3902;49.474;8.616;2023-04-16T01:03:57;4.67;;;4.27;;
7719;SDS011;3902;49.474;8.616;2023-04-16T01:06:23;5.40;;;4.90;;
7719;SDS011;3902;49.474;8.616;2023-04-16T01:08:49;4.80;;;4.37;;
7719;SDS011;3902;49.474;8.616;2023-04-16T01:11:15;5.00;;;4.50;;
7719;SDS011;3902;49.474;8.616;2023-04-16T01:13:41;5.27;;;4.77;;
7719;SDS011;3902;49.474;8.616;2023-04-16T01:16:06;5.03;;;4.63;;
7719;SDS011;3902;49.474;8.616;2023-04-16T01:18:33;5.03;;;4.60;;
7719;SDS011;3902;49.474;8.616;2023-04-16T01:20:59;5.30;;;4.60;;
7719;SDS011;3902;49.474;8.616;2023-04-16T01:23:24;5.37;;;4.97;;
7719;SDS011;3902;49.474;8.616;2023-04-16T01:25:50;4.83;;;4.40;;
7719;SDS011;3902;49.474;8.616;2023-04-16T01:28:16;5.30;;;4.83;;
7719;SDS011;3902;49.474;8.616;2023-04-16T01:30:42;4.60;;;4.20;;
7719;SDS011;3902;49.474;8.616;2023-04-16T01:33:10;5.70;;;5.20;;
7719;SDS011;3902;49.474;8.616;2023-04-16T01:35:37;5.70;;;5.20;;
7719;SDS011;3902;49.474;8.616;2023-04-16T01:38:04;5.73;;;5.23;;
7719;SDS011;3902;49.474;8.616;2023-04-16T01:40:30;5.83;;;5.33;;
7719;SDS011;3902;49.474;8.616;2023-04-16T01:42:56;5.87;;;4.73;;
7719;SDS011;3902;49.474;8.616;2023-04-16T01:45:21;5.50;;;5.10;;
7719;SDS011;3902;49.474;8.616;2023-04-16T01:47:50;5.47;;;4.97;;
7719;SDS011;3902;49.474;8.616;2023-04-16T01:50:16;5.50;;;5.00;;
7719;SDS011;3902;49.474;8.616;2023-04-16T01:52:43;6.00;;;5.40;;
7719;SDS011;3902;49.474;8.616;2023-04-16T01:55:09;5.77;;;5.27;;
7719;SDS011;3902;49.474;8.616;2023-04-16T01:57:35;6.00;;;5.50;;
7719;SDS011;3902;49.474;8.616;2023-04-16T02:00:01;6.53;;;5.93;;
7719;SDS011;3902;49.474;8.616;2023-04-16T02:02:27;6.07;;;5.57;;
7719;SDS011;3902;49.474;8.616;2023-04-16T02:04:53;5.60;;;5.10;;
7719;SDS011;3902;49.474;8.616;2023-04-16T02:07:20;6.30;;;5.70;;
7719;SDS011;3902;49.474;8.616;2023-04-16T02:09:46;6.13;;;5.63;;
7719;SDS011;3902;49.474;8.616;2023-04-16T02:12:14;5.93;;;5.33;;
7719;SDS011;3902;49.474;8.616;2023-04-16T02:14:39;7.07;;;6.47;;
7719;SDS011;3902;49.474;8.616;2023-04-16T02:17:05;7.57;;;6.77;;
7719;SDS011;3902;49.474;8.616;2023-04-16T02:19:30;7.57;;;6.87;;
7719;SDS011;3902;49.474;8.616;2023-04-16T02:21:56;8.23;;;7.13;;
7719;SDS011;3902;49.474;8.616;2023-04-16T02:24:21;7.70;;;7.00;;
7719;SDS011;3902;49.474;8.616;2023-04-16T02:26:47;7.50;;;6.70;;
7719;SDS011;3902;49.474;8.616;2023-04-16T02:29:12;7.97;;;7.20;;
7719;SDS011;3902;49.474;8.616;2023-04-16T02:31:38;7.93;;;7.07;;
7719;SDS011;3902;49.474;8.616;2023-04-16T02:34:04;7.93;;;7.13;;
7719;SDS011;3902;49.474;8.616;2023-04-16T02:36:30;8.23;;;7.43;;
7719;SDS011;3902;49.474;8.616;2023-04-16T02:38:56;7.83;;;7.13;;
7719;SDS011;3902;49.474;8.616;2023-04-16T02:41:24;8.33;;;7.53;;
7719;SDS011;3902;49.474;8.616;2023-04-16T02:43:50;7.93;;;7.23;;
7719;SDS011;3902;49.474;8.616;2023-04-16T02:46:16;7.43;;;6.83;;
7719;SDS011;3902;49.474;8.616;2023-04-16T02:48:41;8.50;;;7.70;;
7719;SDS011;3902;49.474;8.616;2023-04-16T02:51:07;8.03;;;7.33;;
7719;SDS011;3902;49.474;8.616;2023-04-16T02:53:32;8.37;;;7.67;;
7719;SDS011;3902;49.474;8.616;2023-04-16T02:55:58;8.37;;;7.53;;
7719;SDS011;3902;49.474;8.616;2023-04-16T02:58:24;7.83;;;7.13;;
7719;SDS011;3902;49.474;8.616;2023-04-16T03:00:50;8.30;;;7.60;;
7719;SDS011;3902;49.474;8.616;2023-04-16T03:03:17;8.47;;;7.63;;
7719;SDS011;3902;49.474;8.616;2023-04-16T03:05:42;8.93;;;8.13;;
7719;SDS011;3902;49.474;8.616;2023-04-16T03:08:08;8.53;;;7.80;;
7719;SDS011;3902;49.474;8.616;2023-04-16T03:10:34;9.03;;;8.23;;
7719;SDS011;3902;49.474;8.616;2023-04-16T03:13:00;8.57;;;7.77;;
7719;SDS011;3902;49.474;8.616;2023-04-16T03:15:26;8.73;;;7.93;;
7719;SDS011;3902;49.474;8.616;2023-04-16T03:17:52;8.97;;;8.17;;
7719;SDS011;3902;49.474;8.616;2023-04-16T03:20:18;8.53;;;7.73;;
7719;SDS011;3902;49.474;8.616;2023-04-16T03:22:44;8.87;;;8.07;;
7719;SDS011;3902;49.474;8.616;2023-04-16T03:25:12;8.40;;;7.60;;
7719;SDS011;3902;49.474;8.616;2023-04-16T03:27:38;7.90;;;7.10;;
7719;SDS011;3902;49.474;8.616;2023-04-16T03:30:07;8.80;;;8.00;;
7719;SDS011;3902;49.474;8.616;2023-04-16T03:32:35;8.37;;;7.60;;
7719;SDS011;3902;49.474;8.616;2023-04-16T03:35:01;8.47;;;7.67;;
7719;SDS011;3902;49.474;8.616;2023-04-16T03:37:30;9.20;;;8.40;;
7719;SDS011;3902;49.474;8.616;2023-04-16T03:39:55;9.17;;;8.37;;
7719;SDS011;3902;49.474;8.616;2023-04-16T03:42:21;8.97;;;8.17;;
7719;SDS011;3902;49.474;8.616;2023-04-16T03:44:46;8.87;;;8.07;;
7719;SDS011;3902;49.474;8.616;2023-04-16T03:47:12;7.80;;;7.10;;
7719;SDS011;3902;49.474;8.616;2023-04-16T03:49:37;9.53;;;8.60;;
7719;SDS011;3902;49.474;8.616;2023-04-16T03:52:03;8.97;;;8.13;;
7719;SDS011;3902;49.474;8.616;2023-04-16T03:54:28;9.27;;;8.47;;
7719;SDS011;3902;49.474;8.616;2023-04-16T03:56:54;9.30;;;8.50;;
7719;SDS011;3902;49.474;8.616;2023-04-16T03:59:20;9.37;;;8.40;;
7719;SDS011;3902;49.474;8.616;2023-04-16T04:01:46;9.83;;;8.93;;
7719;SDS011;3902;49.474;8.616;2023-04-16T04:04:12;9.17;;;8.27;;
7719;SDS011;3902;49.474;8.616;2023-04-16T04:06:37;9.17;;;8.27;;
7719;SDS011;3902;49.474;8.616;2023-04-16T04:09:02;9.50;;;8.50;;
7719;SDS011;3902;49.474;8.616;2023-04-16T04:11:28;9.93;;;9.03;;
7719;SDS011;3902;49.474;8.616;2023-04-16T04:13:54;9.20;;;8.30;;
7719;SDS011;3902;49.474;8.616;2023-04-16T04:16:19;9.50;;;8.60;;
7719;SDS011;3902;49.474;8.616;2023-04-16T04:18:45;9.07;;;8.23;;
7719;SDS011;3902;49.474;8.616;2023-04-16T04:21:11;9.83;;;8.83;;
7719;SDS011;3902;49.474;8.616;2023-04-16T04:23:37;10.00;;;8.60;;
7719;SDS011;3902;49.474;8.616;2023-04-16T04:26:02;10.53;;;9.43;;
7719;SDS011;3902;49.474;8.616;2023-04-16T04:28:29;9.33;;;8.47;;
7719;SDS011;3902;49.474;8.616;2023-04-16T04:30:59;11.27;;;10.23;;
7719;SDS011;3902;49.474;8.616;2023-04-16T04:33:25;10.50;;;9.50;;
7719;SDS011;3902;49.474;8.616;2023-04-16T04:35:51;9.43;;;8.53;;
7719;SDS011;3902;49.474;8.616;2023-04-16T04:38:17;10.73;;;9.73;;
7719;SDS011;3902;49.474;8.616;2023-04-16T04:40:44;9.80;;;8.90;;
7719;SDS011;3902;49.474;8.616;2023-04-16T04:43:10;10.47;;;9.47;;
7719;SDS011;3902;49.474;8.616;2023-04-16T04:45:35;9.70;;;8.80;;
7719;SDS011;3902;49.474;8.616;2023-04-16T04:48:01;9.67;;;8.77;;
7719;SDS011;3902;49.474;8.616;2023-04-16T04:50:26;10.03;;;9.13;;
7719;SDS011;3902;49.474;8.616;2023-04-16T04:52:52;9.77;;;8.87;;
7719;SDS011;3902;49.474;8.616;2023-04-16T04:55:17;9.73;;;8.83;;
7719;SDS011;3902;49.474;8.616;2023-04-16T04:57:43;9.40;;;8.50;;
7719;SDS011;3902;49.474;8.616;2023-04-16T05:00:09;9.97;;;8.97;;
7719;SDS011;3902;49.474;8.616;2023-04-16T05:02:34;10.40;;;8.60;;
7719;SDS011;3902;49.474;8.616;2023-04-16T05:05:00;10.10;;;9.10;;
7719;SDS011;3902;49.474;8.616;2023-04-16T05:07:25;10.80;;;9.67;;
7719;SDS011;3902;49.474;8.616;2023-04-16T05:09:51;10.70;;;9.60;;
7719;SDS011;3902;49.474;8.616;2023-04-16T05:12:16;11.70;;;10.60;;
7719;SDS011;3902;49.474;8.616;2023-04-16T05:14:42;10.40;;;9.40;;
7719;SDS011;3902;49.474;8.616;2023-04-16T05:17:07;10.73;;;9.73;;
7719;SDS011;3902;49.474;8.616;2023-04-16T05:19:34;10.57;;;9.57;;
7719;SDS011;3902;49.474;8.616;2023-04-16T05:22:00;11.87;;;10.67;;
7719;SDS011;3902;49.474;8.616;2023-04-16T05:24:26;11.60;;;10.40;;
7719;SDS011;3902;49.474;8.616;2023-04-16T05:26:52;11.30;;;10.20;;
7719;SDS011;3902;49.474;8.616;2023-04-16T05:29:17;10.70;;;9.70;;
7719;SDS011;3902;49.474;8.616;2023-04-16T05:31:43;11.20;;;10.10;;
7719;SDS011;3902;49.474;8.616;2023-04-16T05:34:08;11.73;;;10.43;;
7719;SDS011;3902;49.474;8.616;2023-04-16T05:36:34;11.40;;;10.40;;
7719;SDS011;3902;49.474;8.616;2023-04-16T05:38:59;10.60;;;9.60;;
7719;SDS011;3902;49.474;8.616;2023-04-16T05:41:25;9.90;;;8.90;;
7719;SDS011;3902;49.474;8.616;2023-04-16T05:43:50;10.90;;;9.90;;
7719;SDS011;3902;49.474;8.616;2023-04-16T05:46:16;10.40;;;9.30;;
7719;SDS011;3902;49.474;8.616;2023-04-16T05:48:41;9.80;;;8.67;;
7719;SDS011;3902;49.474;8.616;2023-04-16T05:51:07;9.17;;;8.30;;
7719;SDS011;3902;49.474;8.616;2023-04-16T05:53:32;9.30;;;8.50;;
7719;SDS011;3902;49.474;8.616;2023-04-16T05:55:58;9.63;;;8.63;;
7719;SDS011;3902;49.474;8.616;2023-04-16T05:58:23;9.83;;;8.83;;
7719;SDS011;3902;49.474;8.616;2023-04-16T06:00:49;9.30;;;8.40;;
7719;SDS011;3902;49.474;8.616;2023-04-16T06:03:15;9.07;;;8.17;;
7719;SDS011;3902;49.474;8.616;2023-04-16T06:05:40;9.53;;;8.63;;
7719;SDS011;3902;49.474;8.616;2023-04-16T06:08:06;8.53;;;7.63;;
7719;SDS011;3902;49.474;8.616;2023-04-16T06:10:31;8.07;;;7.37;;
7719;SDS011;3902;49.474;8.616;2023-04-16T06:12:57;8.40;;;7.60;;
7719;SDS011;3902;49.474;8.616;2023-04-16T06:15:22;8.87;;;7.97;;
7719;SDS011;3902;49.474;8.616;2023-04-16T06:17:48;8.20;;;7.40;;
7719;SDS011;3902;49.474;8.616;2023-04-16T06:20:13;8.43;;;7.53;;
7719;SDS011;3902;49.474;8.616;2023-04-16T06:22:39;7.70;;;7.00;;
7719;SDS011;3902;49.474;8.616;2023-04-16T06:25:05;6.67;;;6.07;;
7719;SDS011;3902;49.474;8.616;2023-04-16T06:27:30;7.83;;;7.00;;
7719;SDS011;3902;49.474;8.616;2023-04-16T06:29:56;7.47;;;6.77;;
7719;SDS011;3902;49.474;8.616;2023-04-16T06:32:22;6.30;;;5.70;;
7719;SDS011;3902;49.474;8.616;2023-04-16T06:34:48;6.40;;;5.80;;
7719;SDS011;3902;49.474;8.616;2023-04-16T06:37:13;7.20;;;6.50;;
7719;SDS011;3902;49.474;8.616;2023-04-16T06:39:40;7.27;;;6.57;;
7719;SDS011;3902;49.474;8.616;2023-04-16T06:42:05;7.23;;;6.53;;
7719;SDS011;3902;49.474;8.616;2023-04-16T06:44:31;7.23;;;6.53;;
7719;SDS011;3902;49.474;8.616;2023-04-16T06:46:56;7.43;;;6.63;;
7719;SDS011;3902;49.474;8.616;2023-04-16T06:49:22;7.43;;;6.73;;
7719;SDS011;3902;49.474;8.616;2023-04-16T06:51:48;7.90;;;7.17;;
7719;SDS011;3902;49.474;8.616;2023-04-16T06:54:13;8.13;;;6.90;;
7719;SDS011;3902;49.474;8.616;2023-04-16T06:56:39;7.80;;;7.00;;
7719;SDS011;3902;49.474;8.616;2023-04-16T06:59:04;8.13;;;7.33;;
7719;SDS011;3902;49.474;8.616;2023-04-16T07:01:31;9.63;;;8.20;;
7719;SDS011;3902;49.474;8.616;2023-04-16T07:03:57;8.53;;;7.67;;
7719;SDS011;3902;49.474;8.616;2023-04-16T07:06:22;8.67;;;7.63;;
7719;SDS011;3902;49.474;8.616;2023-04-16T07:08:48;8.00;;;7.20;;
7719;SDS011;3902;49.474;8.616;2023-04-16T07:11:13;11.00;;;8.83;;
7719;SDS011;3902;49.474;8.616;2023-04-16T07:13:39;10.03;;;8.80;;
7719;SDS011;3902;49.474;8.616;2023-04-16T07:16:04;9.90;;;8.90;;
7719;SDS011;3902;49.474;8.616;2023-04-16T07:18:30;10.33;;;9.27;;
7719;SDS011;3902;49.474;8.616;2023-04-16T07:20:56;10.60;;;9.50;;
7719;SDS011;3902;49.474;8.616;2023-04-16T07:23:21;11.20;;;10.00;;
7719;SDS011;3902;49.474;8.616;2023-04-16T07:25:47;11.40;;;9.90;;
7719;SDS011;3902;49.474;8.616;2023-04-16T07:28:12;11.77;;;10.20;;
7719;SDS011;3902;49.474;8.616;2023-04-16T07:30:40;11.97;;;10.63;;
7719;SDS011;3902;49.474;8.616;2023-04-16T07:33:06;11.67;;;10.33;;
7719;SDS011;3902;49.474;8.616;2023-04-16T07:35:31;12.30;;;11.00;;
7719;SDS011;3902;49.474;8.616;2023-04-16T07:37:57;12.73;;;10.60;;
7719;SDS011;3902;49.474;8.616;2023-04-16T07:40:22;12.60;;;11.27;;
7719;SDS011;3902;49.474;8.616;2023-04-16T07:42:48;13.23;;;11.23;;
7719;SDS011;3902;49.474;8.616;2023-04-16T07:45:14;11.53;;;10.20;;
7719;SDS011;3902;49.474;8.616;2023-04-16T07:47:40;12.87;;;10.90;;
7719;SDS011;3902;49.474;8.616;2023-04-16T07:50:06;11.43;;;10.23;;
7719;SDS011;3902;49.474;8.616;2023-04-16T07:52:32;12.17;;;10.87;;
7719;SDS011;3902;49.474;8.616;2023-04-16T07:54:57;12.60;;;11.30;;
7719;SDS011;3902;49.474;8.616;2023-04-16T07:57:23;13.10;;;11.50;;
7719;SDS011;3902;49.474;8.616;2023-04-16T07:59:49;13.57;;;11.70;;
7719;SDS011;3902;49.474;8.616;2023-04-16T08:02:15;13.20;;;11.67;;
7719;SDS011;3902;49.474;8.616;2023-04-16T08:04:41;15.17;;;12.43;;
7719;SDS011;3902;49.474;8.616;2023-04-16T08:07:07;13.50;;;11.70;;
7719;SDS011;3902;49.474;8.616;2023-04-16T08:09:33;13.00;;;11.60;;
7719;SDS011;3902;49.474;8.616;2023-04-16T08:12:02;12.97;;;11.63;;
7719;SDS011;3902;49.474;8.616;2023-04-16T08:14:27;12.97;;;11.57;;
7719;SDS011;3902;49.474;8.616;2023-04-16T08:16:53;14.40;;;12.00;;
7719;SDS011;3902;49.474;8.616;2023-04-16T08:19:18;12.07;;;10.73;;
7719;SDS011;3902;49.474;8.616;2023-04-16T08:21:44;12.13;;;10.53;;
7719;SDS011;3902;49.474;8.616;2023-04-16T08:24:10;11.70;;;10.50;;
7719;SDS011;3902;49.474;8.616;2023-04-16T08:26:36;11.20;;;10.10;;
7719;SDS011;3902;49.474;8.616;2023-04-16T08:29:01;12.17;;;10.80;;
7719;SDS011;3902;49.474;8.616;2023-04-16T08:31:27;12.93;;;10.50;;
7719;SDS011;3902;49.474;8.616;2023-04-16T08:33:52;11.90;;;10.60;;
7719;SDS011;3902;49.474;8.616;2023-04-16T08:36:18;11.17;;;10.00;;
7719;SDS011;3902;49.474;8.616;2023-04-16T08:38:43;12.70;;;10.37;;
7719;SDS011;3902;49.474;8.616;2023-04-16T08:41:11;10.93;;;9.70;;
7719;SDS011;3902;49.474;8.616;2023-04-16T08:43:37;10.90;;;9.83;;
7719;SDS011;3902;49.474;8.616;2023-04-16T08:46:09;10.70;;;9.57;;
7719;SDS011;3902;49.474;8.616;2023-04-16T08:48:36;10.63;;;9.50;;
7719;SDS011;3902;49.474;8.616;2023-04-16T08:51:03;12.20;;;10.07;;
7719;SDS011;3902;49.474;8.616;2023-04-16T08:53:52;10.70;;;9.57;;
7719;SDS011;3902;49.474;8.616;2023-04-16T08:56:22;10.90;;;9.23;;
7719;SDS011;3902;49.474;8.616;2023-04-16T08:58:49;11.90;;;9.90;;
7719;SDS011;3902;49.474;8.616;2023-04-16T09:01:16;12.50;;;9.67;;
7719;SDS011;3902;49.474;8.616;2023-04-16T09:03:46;10.23;;;9.17;;
7719;SDS011;3902;49.474;8.616;2023-04-16T09:06:13;11.13;;;9.63;;
7719;SDS011;3902;49.474;8.616;2023-04-16T09:08:40;10.70;;;8.97;;
7719;SDS011;3902;49.474;8.616;2023-04-16T09:11:07;10.60;;;9.10;;
7719;SDS011;3902;49.474;8.616;2023-04-16T09:13:33;10.07;;;9.00;;
7719;SDS011;3902;49.474;8.616;2023-04-16T09:16:01;9.53;;;8.63;;
7719;SDS011;3902;49.474;8.616;2023-04-16T09:18:27;11.03;;;9.90;;
7719;SDS011;3902;49.474;8.616;2023-04-16T09:20:54;10.50;;;8.93;;
7719;SDS011;3902;49.474;8.616;2023-04-16T09:23:21;10.37;;;8.97;;
7719;SDS011;3902;49.474;8.616;2023-04-16T09:25:46;11.63;;;10.20;;
7719;SDS011;3902;49.474;8.616;2023-04-16T09:28:12;11.10;;;10.00;;
7719;SDS011;3902;49.474;8.616;2023-04-16T09:31:07;10.80;;;9.23;;
7719;SDS011;3902;49.474;8.616;2023-04-16T09:33:34;11.00;;;8.27;;
7719;SDS011;3902;49.474;8.616;2023-04-16T09:36:00;9.93;;;8.67;;
7719;SDS011;3902;49.474;8.616;2023-04-16T09:38:26;9.60;;;8.60;;
7719;SDS011;3902;49.474;8.616;2023-04-16T09:41:13;8.97;;;8.07;;
7719;SDS011;3902;49.474;8.616;2023-04-16T09:43:40;9.13;;;8.20;;
7719;SDS011;3902;49.474;8.616;2023-04-16T09:46:13;9.43;;;7.97;;
7719;SDS011;3902;49.474;8.616;2023-04-16T09:48:38;9.70;;;8.70;;
7719;SDS011;3902;49.474;8.616;2023-04-16T09:51:04;8.87;;;7.97;;
7719;SDS011;3902;49.474;8.616;2023-04-16T09:53:30;9.33;;;8.20;;
7719;SDS011;3902;49.474;8.616;2023-04-16T09:56:00;10.27;;;8.73;;
7719;SDS011;3902;49.474;8.616;2023-04-16T09:58:27;9.40;;;8.37;;
7719;SDS011;3902;49.474;8.616;2023-04-16T10:03:36;9.03;;;8.13;;
7719;SDS011;3902;49.474;8.616;2023-04-16T10:06:06;9.70;;;8.33;;
7719;SDS011;3902;49.474;8.616;2023-04-16T10:08:32;9.07;;;8.13;;
7719;SDS011;3902;49.474;8.616;2023-04-16T10:10:58;9.20;;;8.03;;
7719;SDS011;3902;49.474;8.616;2023-04-16T10:13:24;10.17;;;8.57;;
7719;SDS011;3902;49.474;8.616;2023-04-16T10:15:54;9.10;;;8.20;;
7719;SDS011;3902;49.474;8.616;2023-04-16T10:18:20;9.70;;;8.13;;
7719;SDS011;3902;49.474;8.616;2023-04-16T10:20:46;10.00;;;7.57;;
7719;SDS011;3902;49.474;8.616;2023-04-16T10:23:13;10.33;;;9.27;;
7719;SDS011;3902;49.474;8.616;2023-04-16T10:25:39;8.50;;;7.70;;
7719;SDS011;3902;49.474;8.616;2023-04-16T10:28:07;9.97;;;8.97;;
7719;SDS011;3902;49.474;8.616;2023-04-16T10:30:34;10.00;;;8.77;;
7719;SDS011;3902;49.474;8.616;2023-04-16T10:33:01;9.30;;;8.30;;
7719;SDS011;3902;49.474;8.616;2023-04-16T10:35:29;9.70;;;8.70;;
7719;SDS011;3902;49.474;8.616;2023-04-16T10:37:55;10.73;;;9.63;;
7719;SDS011;3902;49.474;8.616;2023-04-16T10:40:22;11.40;;;9.50;;
7719;SDS011;3902;49.474;8.616;2023-04-16T10:42:58;11.43;;;10.27;;
7719;SDS011;3902;49.474;8.616;2023-04-16T10:45:26;9.83;;;8.83;;
7719;SDS011;3902;49.474;8.616;2023-04-16T10:48:11;9.53;;;8.57;;
7719;SDS011;3902;49.474;8.616;2023-04-16T10:50:38;10.03;;;9.00;;
7719;SDS011;3902;49.474;8.616;2023-04-16T10:53:15;9.43;;;8.43;;
7719;SDS011;3902;49.474;8.616;2023-04-16T10:55:55;10.63;;;8.20;;
7719;SDS011;3902;49.474;8.616;2023-04-16T10:58:27;10.50;;;9.00;;
7719;SDS011;3902;49.474;8.616;2023-04-16T11:00:59;10.53;;;9.17;;
7719;SDS011;3902;49.474;8.616;2023-04-16T11:03:31;10.00;;;8.70;;
7719;SDS011;3902;49.474;8.616;2023-04-16T11:06:08;11.10;;;9.00;;
7719;SDS011;3902;49.474;8.616;2023-04-16T11:08:38;9.50;;;8.60;;
7719;SDS011;3902;49.474;8.616;2023-04-16T11:11:05;10.40;;;8.70;;
7719;SDS011;3902;49.474;8.616;2023-04-16T11:13:31;10.10;;;8.77;;
7719;SDS011;3902;49.474;8.616;2023-04-16T11:15:57;10.17;;;9.17;;
7719;SDS011;3902;49.474;8.616;2023-04-16T11:18:25;10.50;;;9.00;;
7719;SDS011;3902;49.474;8.616;2023-04-16T11:20:51;10.37;;;9.30;;
7719;SDS011;3902;49.474;8.616;2023-04-16T11:23:17;11.13;;;8.67;;
7719;SDS011;3902;49.474;8.616;2023-04-16T11:25:43;10.80;;;9.17;;
7719;SDS011;3902;49.474;8.616;2023-04-16T11:28:09;10.10;;;8.97;;
7719;SDS011;3902;49.474;8.616;2023-04-16T11:30:35;10.80;;;9.70;;
7719;SDS011;3902;49.474;8.616;2023-04-16T11:33:02;11.50;;;9.47;;
7719;SDS011;3902;49.474;8.616;2023-04-16T11:35:38;11.60;;;10.33;;
7719;SDS011;3902;49.474;8.616;2023-04-16T11:38:05;10.27;;;9.27;;
7719;SDS011;3902;49.474;8.616;2023-04-16T11:40:31;9.67;;;8.67;;
7719;SDS011;3902;49.474;8.616;2023-04-16T11:43:00;11.10;;;10.00;;
7719;SDS011;3902;49.474;8.616;2023-04-16T11:45:28;10.30;;;9.20;;
7719;SDS011;3902;49.474;8.616;2023-04-16T11:47:54;10.80;;;9.70;;
7719;SDS011;3902;49.474;8.616;2023-04-16T11:50:22;10.53;;;9.47;;
7719;SDS011;3902;49.474;8.616;2023-04-16T11:52:48;11.40;;;9.93;;
7719;SDS011;3902;49.474;8.616;2023-04-16T11:55:15;10.83;;;9.43;;
7719;SDS011;3902;49.474;8.616;2023-04-16T11:57:41;11.80;;;10.07;;
7719;SDS011;3902;49.474;8.616;2023-04-16T12:00:06;13.10;;;9.93;;
7719;SDS011;3902;49.474;8.616;2023-04-16T12:05:29;12.00;;;10.17;;
7719;SDS011;3902;49.474;8.616;2023-04-16T12:07:57;11.13;;;10.00;;
7719;SDS011;3902;49.474;8.616;2023-04-16T12:10:23;10.20;;;9.20;;
7719;SDS011;3902;49.474;8.616;2023-04-16T12:12:49;11.03;;;9.87;;
7719;SDS011;3902;49.474;8.616;2023-04-16T12:15:15;10.53;;;9.20;;
7719;SDS011;3902;49.474;8.616;2023-04-16T12:17:40;10.53;;;9.43;;
7719;SDS011;3902;49.474;8.616;2023-04-16T12:20:10;10.13;;;9.13;;
7719;SDS011;3902;49.474;8.616;2023-04-16T12:22:37;10.80;;;9.70;;
7719;SDS011;3902;49.474;8.616;2023-04-16T12:25:05;13.43;;;11.50;;
7719;SDS011;3902;49.474;8.616;2023-04-16T12:30:10;11.53;;;9.87;;
7719;SDS011;3902;49.474;8.616;2023-04-16T12:32:36;11.53;;;9.93;;
7719;SDS011;3902;49.474;8.616;2023-04-16T12:35:02;12.23;;;10.80;;
7719;SDS011;3902;49.474;8.616;2023-04-16T12:37:28;11.37;;;9.70;;
7719;SDS011;3902;49.474;8.616;2023-04-16T12:39:53;11.30;;;10.13;;
7719;SDS011;3902;49.474;8.616;2023-04-16T12:42:19;11.80;;;10.53;;
7719;SDS011;3902;49.474;8.616;2023-04-16T12:44:45;11.20;;;9.90;;
7719;SDS011;3902;49.474;8.616;2023-04-16T12:47:10;10.67;;;9.57;;
7719;SDS011;3902;49.474;8.616;2023-04-16T12:49:36;11.63;;;10.43;;
7719;SDS011;3902;49.474;8.616;2023-04-16T12:52:02;11.63;;;10.43;;
7719;SDS011;3902;49.474;8.616;2023-04-16T12:54:27;12.27;;;10.37;;
7719;SDS011;3902;49.474;8.616;2023-04-16T12:56:55;11.20;;;10.03;;
7719;SDS011;3902;49.474;8.616;2023-04-16T12:59:21;11.50;;;10.10;;
7719;SDS011;3902;49.474;8.616;2023-04-16T13:01:46;11.67;;;10.47;;
7719;SDS011;3902;49.474;8.616;2023-04-16T13:04:12;14.50;;;10.90;;
7719;SDS011;3902;49.474;8.616;2023-04-16T13:06:38;11.77;;;10.27;;
7719;SDS011;3902;49.474;8.616;2023-04-16T13:09:04;12.07;;;10.50;;
7719;SDS011;3902;49.474;8.616;2023-04-16T13:11:30;12.00;;;10.70;;
7719;SDS011;3902;49.474;8.616;2023-04-16T13:13:56;11.97;;;10.53;;
7719;SDS011;3902;49.474;8.616;2023-04-16T13:16:22;12.20;;;10.90;;
7719;SDS011;3902;49.474;8.616;2023-04-16T13:18:48;12.67;;;10.40;;
7719;SDS011;3902;49.474;8.616;2023-04-16T13:21:13;11.10;;;9.93;;
7719;SDS011;3902;49.474;8.616;2023-04-16T13:23:39;11.33;;;10.13;;
7719;SDS011;3902;49.474;8.616;2023-04-16T13:26:04;11.70;;;10.50;;
7719;SDS011;3902;49.474;8.616;2023-04-16T13:28:30;11.30;;;10.10;;
7719;SDS011;3902;49.474;8.616;2023-04-16T13:30:56;11.33;;;9.83;;
7719;SDS011;3902;49.474;8.616;2023-04-16T13:33:21;11.27;;;10.13;;
7719;SDS011;3902;49.474;8.616;2023-04-16T13:35:47;11.53;;;10.07;;
7719;SDS011;3902;49.474;8.616;2023-04-16T13:38:13;12.47;;;11.00;;
7719;SDS011;3902;49.474;8.616;2023-04-16T13:40:39;11.13;;;9.93;;
7719;SDS011;3902;49.474;8.616;2023-04-16T13:43:05;12.50;;;10.70;;
7719;SDS011;3902;49.474;8.616;2023-04-16T13:45:30;13.17;;;10.60;;
7719;SDS011;3902;49.474;8.616;2023-04-16T13:47:56;11.07;;;9.63;;
7719;SDS011;3902;49.474;8.616;2023-04-16T13:50:21;12.37;;;11.10;;
7719;SDS011;3902;49.474;8.616;2023-04-16T13:52:47;13.83;;;10.20;;
7719;SDS011;3902;49.474;8.616;2023-04-16T13:55:12;12.73;;;11.33;;
7719;SDS011;3902;49.474;8.616;2023-04-16T13:57:41;12.20;;;10.87;;
7719;SDS011;3902;49.474;8.616;2023-04-16T14:00:07;13.00;;;11.70;;
7719;SDS011;3902;49.474;8.616;2023-04-16T14:02:33;12.27;;;10.87;;
7719;SDS011;3902;49.474;8.616;2023-04-16T14:04:59;12.17;;;10.87;;
7719;SDS011;3902;49.474;8.616;2023-04-16T14:07:25;13.30;;;11.57;;
7719;SDS011;3902;49.474;8.616;2023-04-16T14:09:52;13.10;;;11.43;;
7719;SDS011;3902;49.474;8.616;2023-04-16T14:12:17;11.70;;;10.50;;
7719;SDS011;3902;49.474;8.616;2023-04-16T14:14:43;12.97;;;11.60;;
7719;SDS011;3902;49.474;8.616;2023-04-16T14:17:09;12.30;;;11.00;;
7719;SDS011;3902;49.474;8.616;2023-04-16T14:19:35;12.67;;;10.53;;
7719;SDS011;3902;49.474;8.616;2023-04-16T14:22:00;11.47;;;10.03;;
7719;SDS011;3902;49.474;8.616;2023-04-16T14:24:26;12.50;;;11.07;;
7719;SDS011;3902;49.474;8.616;2023-04-16T14:26:51;12.93;;;10.80;;
7719;SDS011;3902;49.474;8.616;2023-04-16T14:29:17;11.83;;;10.63;;
7719;SDS011;3902;49.474;8.616;2023-04-16T14:31:42;13.00;;;10.70;;
7719;SDS011;3902;49.474;8.616;2023-04-16T14:34:08;14.50;;;11.30;;
7719;SDS011;3902;49.474;8.616;2023-04-16T14:36:34;13.43;;;11.50;;
7719;SDS011;3902;49.474;8.616;2023-04-16T14:39:00;12.73;;;11.23;;
7719;SDS011;3902;49.474;8.616;2023-04-16T14:41:26;12.40;;;11.10;;
7719;SDS011;3902;49.474;8.616;2023-04-16T14:43:51;14.07;;;10.90;;
7719;SDS011;3902;49.474;8.616;2023-04-16T14:46:17;14.07;;;11.73;;
7719;SDS011;3902;49.474;8.616;2023-04-16T14:48:43;14.43;;;12.03;;
7719;SDS011;3902;49.474;8.616;2023-04-16T14:51:09;14.70;;;11.33;;
7719;SDS011;3902;49.474;8.616;2023-04-16T14:53:35;12.60;;;10.93;;
7719;SDS011;3902;49.474;8.616;2023-04-16T14:56:01;12.17;;;10.77;;
7719;SDS011;3902;49.474;8.616;2023-04-16T14:58:27;12.10;;;10.83;;
7719;SDS011;3902;49.474;8.616;2023-04-16T15:00:53;13.00;;;11.70;;
7719;SDS011;3902;49.474;8.616;2023-04-16T15:03:19;13.53;;;12.00;;
7719;SDS011;3902;49.474;8.616;2023-04-16T15:05:45;12.17;;;10.67;;
7719;SDS011;3902;49.474;8.616;2023-04-16T15:08:14;13.07;;;11.07;;